YBMR weather

Barmera Airport
South Australia, Australia

Public forecast

Using degrees Celsius for public forecast. Weather courtesy of forecast.io.

Closest aviation weather report (METAR) to Barmera Airport

Closest report is Mildura Airport, 80.8 nm (149.7 km) E. Retrieved 2020/01/23 01:35 UTC (21 minutes ago):

YMIA 230135Z AUTO 28017G32KT 6000 // SCT023 SCT027 BKN033 25/08 Q1002

Closest aviation forecast (TAF) to Barmera Airport

Closest forecast is Adelaide International Airport, 103.8 nm (192.3 km) WSW. Retrieved 2020-01-23 00:00 UTC (2 hours ago):

TAF YPAD 222308Z 2300/2406 24020G30KT 9999 SCT040 FM231200 27010KT 9999 SCT030